createdAt,value
2022-07-29T00:01:19.361Z,0.95
2022-07-29T00:03:47.917Z,1.00
2022-07-29T00:06:16.142Z,0.77
2022-07-29T00:08:45.456Z,1.10
2022-07-29T00:11:13.368Z,0.85
2022-07-29T00:13:41.638Z,0.85
2022-07-29T00:16:09.577Z,0.90
2022-07-29T00:18:37.387Z,0.70
2022-07-29T00:21:05.452Z,0.80
2022-07-29T00:23:36.733Z,0.88
2022-07-29T00:26:06.230Z,1.00
2022-07-29T00:28:34.256Z,0.82
2022-07-29T00:31:02.087Z,0.70
2022-07-29T00:33:30.882Z,0.75
2022-07-29T00:35:57.738Z,0.90
2022-07-29T00:38:25.538Z,0.93
2022-07-29T00:40:53.425Z,0.70
2022-07-29T00:43:22.544Z,1.02
2022-07-29T00:45:50.355Z,0.80
2022-07-29T00:48:18.463Z,0.77
2022-07-29T00:50:46.369Z,0.90
2022-07-29T00:53:14.608Z,0.98
2022-07-29T00:55:42.857Z,0.70
2022-07-29T00:58:10.945Z,0.80
2022-07-29T01:00:41.701Z,0.73
2022-07-29T01:03:09.901Z,1.20
2022-07-29T01:05:50.975Z,0.82
2022-07-29T01:08:20.790Z,0.90
2022-07-29T01:10:49.537Z,1.15
2022-07-29T01:13:18.715Z,1.13
2022-07-29T01:15:53.705Z,1.05
2022-07-29T01:18:30.406Z,0.82
2022-07-29T01:21:17.922Z,0.80
2022-07-29T01:24:07.521Z,0.70
2022-07-29T01:26:47.661Z,0.70
2022-07-29T01:29:31.008Z,1.45
2022-07-29T01:32:08.384Z,0.70
2022-07-29T01:34:52.555Z,0.90
2022-07-29T01:37:24.152Z,0.90
2022-07-29T01:39:56.117Z,1.10
2022-07-29T01:42:29.705Z,1.05
2022-07-29T01:45:03.803Z,1.27
2022-07-29T01:47:39.596Z,0.80
2022-07-29T01:50:12.431Z,0.63
2022-07-29T01:52:45.720Z,0.80
2022-07-29T01:55:22.056Z,0.98
2022-07-29T01:57:51.166Z,0.70
2022-07-29T02:00:20.839Z,0.80
2022-07-29T02:02:50.222Z,0.95
2022-07-29T02:05:21.220Z,0.90
2022-07-29T02:07:50.451Z,1.33
2022-07-29T02:10:20.540Z,0.95
2022-07-29T02:12:57.018Z,0.60
2022-07-29T02:15:28.961Z,0.70
2022-07-29T02:18:01.870Z,0.90
2022-07-29T02:20:30.817Z,0.88
2022-07-29T02:23:01.662Z,1.05
2022-07-29T02:25:37.045Z,1.20
2022-07-29T02:28:07.733Z,0.85
2022-07-29T02:30:41.067Z,0.77
2022-07-29T02:33:11.840Z,0.73
2022-07-29T02:35:42.497Z,0.88
2022-07-29T02:38:31.525Z,1.00
2022-07-29T02:41:00.780Z,0.82
2022-07-29T02:43:29.944Z,1.08
2022-07-29T02:46:00.932Z,1.13
2022-07-29T02:48:43.394Z,1.20
2022-07-29T02:51:41.380Z,1.20
2022-07-29T02:54:11.232Z,1.20
2022-07-29T02:56:41.629Z,1.20
2022-07-29T02:59:13.666Z,0.98
2022-07-29T03:01:46.151Z,0.90
2022-07-29T03:04:16.946Z,1.38
2022-07-29T03:06:46.621Z,1.35
2022-07-29T03:09:15.239Z,0.88
2022-07-29T03:11:49.675Z,1.15
2022-07-29T03:14:21.259Z,1.17
2022-07-29T03:16:51.881Z,1.10
2022-07-29T03:19:21.101Z,1.17
2022-07-29T03:21:49.151Z,1.30
2022-07-29T03:24:32.431Z,1.02
2022-07-29T03:27:00.669Z,1.10
2022-07-29T03:29:33.690Z,1.30
2022-07-29T03:32:08.264Z,2.10
2022-07-29T03:34:37.782Z,1.23
2022-07-29T03:37:07.043Z,1.20
2022-07-29T03:39:40.249Z,1.30
2022-07-29T03:42:10.471Z,1.00
2022-07-29T03:44:40.715Z,1.30
2022-07-29T03:47:11.886Z,1.38
2022-07-29T03:49:41.230Z,1.40
2022-07-29T03:52:09.738Z,1.10
2022-07-29T03:54:37.985Z,1.60
2022-07-29T03:57:06.905Z,1.40
2022-07-29T03:59:35.819Z,1.63
2022-07-29T04:02:05.643Z,1.15
2022-07-29T04:04:37.260Z,1.40
2022-07-29T04:07:06.082Z,1.67
2022-07-29T04:09:34.025Z,1.55
2022-07-29T04:12:04.238Z,1.63
2022-07-29T04:14:33.075Z,1.50
2022-07-29T04:17:01.080Z,1.60
2022-07-29T04:19:29.245Z,1.38
2022-07-29T04:21:58.570Z,1.23
2022-07-29T04:24:26.500Z,1.30
2022-07-29T04:26:54.756Z,1.63
2022-07-29T04:29:22.990Z,1.25
2022-07-29T04:31:50.814Z,1.50
2022-07-29T04:34:19.475Z,1.35
2022-07-29T04:36:47.790Z,1.80
2022-07-29T04:39:22.697Z,1.00
2022-07-29T04:41:52.357Z,1.50
2022-07-29T04:44:20.750Z,1.52
2022-07-29T04:46:48.671Z,1.48
2022-07-29T04:49:16.849Z,1.30
2022-07-29T04:51:44.752Z,1.30
2022-07-29T04:54:12.761Z,1.13
2022-07-29T04:56:42.580Z,1.77
2022-07-29T04:59:10.693Z,0.93
2022-07-29T05:01:41.056Z,1.20
2022-07-29T05:04:09.138Z,1.38
2022-07-29T05:06:37.027Z,1.42
2022-07-29T05:09:04.942Z,1.48
2022-07-29T05:11:33.170Z,1.55
2022-07-29T05:14:02.331Z,1.13
2022-07-29T05:16:31.066Z,1.52
2022-07-29T05:18:59.117Z,1.45
2022-07-29T05:21:27.006Z,1.25
2022-07-29T05:23:55.036Z,1.25
2022-07-29T05:26:23.192Z,1.02
2022-07-29T05:28:51.619Z,1.45
2022-07-29T05:31:20.864Z,1.60
2022-07-29T05:33:49.010Z,1.27
2022-07-29T05:36:16.866Z,1.38
2022-07-29T05:38:44.670Z,1.50
2022-07-29T05:41:12.764Z,1.40
2022-07-29T05:43:40.690Z,1.40
2022-07-29T05:46:08.523Z,1.33
2022-07-29T05:48:38.560Z,1.45
2022-07-29T05:51:06.958Z,1.60
2022-07-29T05:53:34.829Z,1.08
2022-07-29T05:56:05.831Z,1.50
2022-07-29T05:58:33.751Z,1.30
2022-07-29T06:01:01.837Z,1.30
2022-07-29T06:03:30.393Z,1.42
2022-07-29T06:06:00.281Z,1.63
2022-07-29T06:08:28.300Z,1.15
2022-07-29T06:10:56.421Z,1.38
2022-07-29T06:13:25.517Z,1.52
2022-07-29T06:15:53.420Z,1.42
2022-07-29T06:18:21.804Z,1.50
2022-07-29T06:20:49.732Z,1.08
2022-07-29T06:23:18.966Z,1.13
2022-07-29T06:25:46.963Z,1.05
2022-07-29T06:28:15.326Z,1.13
2022-07-29T06:30:43.310Z,0.75
2022-07-29T06:33:11.355Z,1.02
2022-07-29T06:35:41.837Z,1.05
2022-07-29T06:38:14.933Z,1.20
2022-07-29T06:41:03.489Z,1.13
2022-07-29T06:43:34.785Z,0.65
2022-07-29T06:46:04.846Z,1.20
2022-07-29T06:48:33.048Z,0.65
2022-07-29T06:51:01.087Z,0.75
2022-07-29T06:53:29.659Z,0.80
2022-07-29T06:55:59.144Z,1.38
2022-07-29T06:58:27.315Z,0.98
2022-07-29T07:00:55.663Z,0.82
2022-07-29T07:03:24.545Z,0.70
2022-07-29T07:05:54.227Z,1.30
2022-07-29T07:08:23.184Z,1.00
2022-07-29T07:10:51.450Z,0.93
2022-07-29T07:13:20.781Z,0.88
2022-07-29T07:15:49.395Z,1.27
2022-07-29T07:18:17.892Z,1.70
2022-07-29T07:20:46.494Z,0.90
2022-07-29T07:23:14.437Z,0.80
2022-07-29T07:25:43.010Z,1.40
2022-07-29T07:28:10.914Z,1.08
2022-07-29T07:30:41.071Z,1.10
2022-07-29T07:33:08.889Z,1.40
2022-07-29T07:35:37.009Z,1.40
2022-07-29T07:38:06.870Z,1.20
2022-07-29T07:40:34.826Z,1.00
2022-07-29T07:43:02.987Z,0.88
2022-07-29T07:45:33.452Z,1.52
2022-07-29T07:48:02.858Z,1.17
2022-07-29T07:50:31.674Z,0.90
2022-07-29T07:52:59.595Z,1.00
2022-07-29T07:55:28.529Z,1.08
2022-07-29T07:57:57.188Z,0.90
2022-07-29T08:00:25.207Z,1.20
2022-07-29T08:02:53.174Z,1.02
2022-07-29T08:05:22.378Z,1.42
2022-07-29T08:07:50.418Z,0.93
2022-07-29T08:10:40.798Z,1.00
2022-07-29T08:13:10.083Z,1.30
2022-07-29T08:15:37.928Z,1.20
2022-07-29T08:18:08.771Z,0.80
2022-07-29T08:20:39.491Z,1.10
2022-07-29T08:23:10.642Z,1.00
2022-07-29T08:25:40.289Z,0.90
2022-07-29T08:28:08.337Z,1.30
2022-07-29T08:30:36.751Z,1.05
2022-07-29T08:33:04.987Z,1.15
2022-07-29T08:35:35.551Z,1.15
2022-07-29T08:38:05.758Z,1.10
2022-07-29T08:40:33.632Z,1.45
2022-07-29T08:43:06.841Z,1.25
2022-07-29T08:45:47.428Z,1.50
2022-07-29T08:48:17.039Z,1.55
2022-07-29T08:50:46.713Z,1.50
2022-07-29T08:53:17.808Z,1.25
2022-07-29T08:55:47.462Z,1.20
2022-07-29T08:58:16.439Z,1.23
2022-07-29T09:00:50.924Z,1.23
2022-07-29T09:03:21.198Z,1.33
2022-07-29T09:05:49.550Z,1.33
2022-07-29T09:08:19.740Z,1.30
2022-07-29T09:10:47.613Z,1.50
2022-07-29T09:13:15.591Z,2.03
2022-07-29T09:15:43.485Z,1.23
2022-07-29T09:18:20.458Z,1.38
2022-07-29T09:21:16.681Z,1.02
2022-07-29T09:24:02.202Z,1.17
2022-07-29T09:26:30.687Z,1.45
2022-07-29T09:28:59.225Z,0.98
2022-07-29T09:31:36.327Z,1.58
2022-07-29T09:34:05.357Z,1.38
2022-07-29T09:36:34.231Z,1.58
2022-07-29T09:39:04.456Z,1.40
2022-07-29T09:41:45.493Z,1.60
2022-07-29T09:44:13.413Z,1.30
2022-07-29T09:46:42.909Z,1.58
2022-07-29T09:49:12.211Z,1.25
2022-07-29T09:51:41.364Z,1.30
2022-07-29T09:54:26.666Z,1.50
2022-07-29T09:56:56.295Z,1.20
2022-07-29T09:59:27.367Z,1.30
2022-07-29T10:01:55.741Z,1.42
2022-07-29T10:04:23.845Z,1.17
2022-07-29T10:07:04.280Z,1.10
2022-07-29T10:09:35.038Z,1.48
2022-07-29T10:12:08.885Z,1.25
2022-07-29T10:14:37.552Z,1.40
2022-07-29T10:17:07.366Z,1.20
2022-07-29T10:19:36.405Z,1.52
2022-07-29T10:22:06.737Z,1.45
2022-07-29T10:24:36.500Z,1.70
2022-07-29T10:27:06.276Z,1.35
2022-07-29T10:29:35.138Z,1.23
2022-07-29T10:32:29.098Z,1.33
2022-07-29T10:35:21.893Z,1.35
2022-07-29T10:38:06.223Z,1.45
2022-07-29T10:41:03.281Z,1.10
2022-07-29T10:43:38.709Z,1.33
2022-07-29T10:46:07.362Z,1.10
2022-07-29T10:48:35.964Z,1.65
2022-07-29T10:51:09.503Z,1.55
2022-07-29T10:53:51.859Z,2.17
2022-07-29T10:56:28.612Z,1.20
2022-07-29T10:59:36.563Z,1.02
2022-07-29T11:02:41.989Z,0.85
2022-07-29T11:05:14.789Z,1.27
2022-07-29T11:08:25.996Z,1.58
2022-07-29T11:11:10.566Z,1.20
2022-07-29T11:13:54.166Z,1.30
2022-07-29T11:16:24.931Z,1.52
2022-07-29T11:19:26.682Z,1.48
2022-07-29T11:21:58.817Z,1.55
2022-07-29T11:24:30.263Z,1.60
2022-07-29T11:27:19.781Z,0.98
2022-07-29T11:29:58.641Z,1.83
2022-07-29T11:32:36.961Z,1.80
2022-07-29T11:35:36.759Z,1.10
2022-07-29T11:38:31.752Z,1.58
2022-07-29T11:41:22.684Z,1.10
2022-07-29T11:43:53.107Z,1.30
2022-07-29T11:46:50.125Z,1.42
2022-07-29T11:49:32.490Z,1.85
2022-07-29T11:52:03.975Z,1.30
2022-07-29T11:54:38.898Z,1.58
2022-07-29T11:57:22.932Z,1.33
2022-07-29T12:00:09.561Z,1.23
2022-07-29T12:02:48.059Z,1.10
2022-07-29T12:05:36.067Z,1.40
2022-07-29T12:08:14.740Z,1.20
2022-07-29T12:10:43.723Z,1.60
2022-07-29T12:13:12.668Z,1.00
2022-07-29T12:15:45.860Z,0.90
2022-07-29T12:18:24.329Z,1.40
2022-07-29T12:20:59.640Z,0.98
2022-07-29T12:23:34.885Z,1.20
2022-07-29T12:26:07.499Z,1.33
2022-07-29T12:28:40.500Z,1.33
2022-07-29T12:31:43.217Z,1.25
2022-07-29T12:34:05.070Z,1.17
2022-07-29T12:36:32.955Z,1.02
2022-07-29T12:39:00.940Z,1.20
2022-07-29T12:41:29.945Z,1.02
2022-07-29T12:43:58.120Z,1.40
2022-07-29T12:46:25.958Z,1.20
2022-07-29T12:48:55.661Z,1.25
2022-07-29T12:51:32.214Z,0.90
2022-07-29T12:54:09.489Z,1.13
2022-07-29T12:56:45.279Z,1.23
2022-07-29T12:59:15.329Z,2.33
2022-07-29T13:01:43.286Z,1.08
2022-07-29T13:04:11.104Z,0.70
2022-07-29T13:06:42.629Z,1.15
2022-07-29T13:09:16.154Z,0.93
2022-07-29T13:11:48.647Z,1.00
2022-07-29T13:14:31.989Z,0.90
2022-07-29T13:17:05.884Z,1.20
2022-07-29T13:19:42.142Z,1.23
2022-07-29T13:22:12.195Z,1.00
2022-07-29T13:24:51.275Z,1.08
2022-07-29T13:27:19.487Z,1.10
2022-07-29T13:29:47.717Z,1.10
2022-07-29T13:32:16.441Z,0.95
2022-07-29T13:34:44.744Z,1.30
2022-07-29T13:37:13.845Z,1.40
2022-07-29T13:39:41.939Z,1.88
2022-07-29T13:42:21.228Z,1.05
2022-07-29T13:44:49.572Z,1.08
2022-07-29T13:47:17.798Z,1.20
2022-07-29T13:49:45.930Z,1.52
2022-07-29T13:52:15.441Z,1.00
2022-07-29T13:54:43.786Z,1.55
2022-07-29T13:57:12.337Z,1.20
2022-07-29T13:59:40.901Z,1.52
2022-07-29T14:02:09.581Z,0.95
2022-07-29T14:04:39.727Z,1.75
2022-07-29T14:07:08.882Z,1.23
2022-07-29T14:09:41.682Z,0.85
2022-07-29T14:12:10.697Z,1.20
2022-07-29T14:14:38.611Z,1.00
2022-07-29T14:17:08.163Z,0.90
2022-07-29T14:19:38.568Z,1.30
2022-07-29T14:22:07.262Z,0.93
2022-07-29T14:24:37.043Z,0.88
2022-07-29T14:27:07.993Z,0.90
2022-07-29T14:29:38.263Z,0.88
2022-07-29T14:32:07.312Z,0.85
2022-07-29T14:34:35.617Z,0.90
2022-07-29T14:37:03.834Z,0.70
2022-07-29T14:39:32.147Z,1.27
2022-07-29T14:42:00.911Z,0.98
2022-07-29T14:44:32.162Z,1.00
2022-07-29T14:47:01.435Z,1.00
2022-07-29T14:49:35.729Z,0.70
2022-07-29T14:52:03.840Z,0.77
2022-07-29T14:54:31.663Z,0.90
2022-07-29T14:56:59.447Z,3.47
2022-07-29T14:59:27.666Z,1.08
2022-07-29T15:01:57.138Z,0.82
2022-07-29T15:04:25.150Z,0.85
2022-07-29T15:06:53.356Z,0.90
2022-07-29T15:09:21.183Z,1.38
2022-07-29T15:11:49.111Z,1.10
2022-07-29T15:14:17.061Z,1.00
2022-07-29T15:16:47.955Z,1.00
2022-07-29T15:19:17.489Z,0.90
2022-07-29T15:21:48.596Z,1.15
2022-07-29T15:24:27.607Z,0.80
2022-07-29T15:26:55.699Z,1.08
2022-07-29T15:29:23.772Z,0.63
2022-07-29T15:31:51.835Z,0.80
2022-07-29T15:34:24.118Z,1.08
2022-07-29T15:36:53.594Z,1.02
2022-07-29T15:39:22.619Z,1.15
2022-07-29T15:41:51.095Z,1.33
2022-07-29T15:44:19.361Z,1.10
2022-07-29T15:47:04.438Z,0.80
2022-07-29T15:49:47.462Z,0.90
2022-07-29T15:52:25.109Z,1.10
2022-07-29T15:54:54.872Z,0.88
2022-07-29T15:57:23.245Z,0.70
2022-07-29T15:59:51.831Z,0.90
2022-07-29T16:02:20.010Z,0.75
2022-07-29T16:04:49.403Z,0.70
2022-07-29T16:07:17.336Z,0.93
2022-07-29T16:09:50.823Z,1.02
2022-07-29T16:12:20.488Z,0.93
2022-07-29T16:14:49.447Z,1.08
2022-07-29T16:17:17.539Z,0.93
2022-07-29T16:19:46.001Z,0.80
2022-07-29T16:22:15.550Z,0.70
2022-07-29T16:24:43.428Z,0.63
2022-07-29T16:27:11.474Z,0.80
2022-07-29T16:29:39.602Z,0.63
2022-07-29T16:32:08.026Z,0.70
2022-07-29T16:34:36.112Z,1.02
2022-07-29T16:37:04.771Z,0.73
2022-07-29T16:39:34.155Z,0.95
2022-07-29T16:42:05.077Z,0.80
2022-07-29T16:44:34.853Z,0.90
2022-07-29T16:47:03.646Z,0.70
2022-07-29T16:49:32.354Z,0.93
2022-07-29T16:52:00.172Z,0.75
2022-07-29T16:54:29.101Z,1.13
2022-07-29T16:57:00.749Z,0.70
2022-07-29T16:59:29.318Z,0.88
2022-07-29T17:01:57.770Z,0.68
2022-07-29T17:04:25.993Z,0.70
2022-07-29T17:06:53.929Z,0.90
2022-07-29T17:09:22.057Z,0.80
2022-07-29T17:11:55.126Z,1.00
2022-07-29T17:14:26.248Z,0.85
2022-07-29T17:17:00.941Z,0.73
2022-07-29T17:19:32.657Z,0.88
2022-07-29T17:22:11.349Z,0.70
2022-07-29T17:24:42.817Z,0.93
2022-07-29T17:27:10.979Z,0.75
2022-07-29T17:29:40.573Z,1.00
2022-07-29T17:32:09.565Z,0.80
2022-07-29T17:34:37.785Z,1.20
2022-07-29T17:37:06.695Z,0.70
2022-07-29T17:39:35.586Z,0.70
2022-07-29T17:42:03.528Z,0.70
2022-07-29T17:44:31.344Z,0.90
2022-07-29T17:47:02.889Z,0.93
2022-07-29T17:49:30.899Z,0.88
2022-07-29T17:52:00.907Z,0.82
2022-07-29T17:54:29.191Z,0.77
2022-07-29T17:56:57.374Z,1.23
2022-07-29T17:59:25.376Z,0.77
2022-07-29T18:01:54.117Z,0.90
2022-07-29T18:04:23.558Z,0.70
2022-07-29T18:06:51.992Z,0.70
2022-07-29T18:09:19.880Z,0.88
2022-07-29T18:11:48.748Z,1.40
2022-07-29T18:14:16.905Z,0.70
2022-07-29T18:16:44.909Z,0.98
2022-07-29T18:19:12.942Z,0.70
2022-07-29T18:21:51.908Z,0.80
2022-07-29T18:24:22.861Z,0.88
2022-07-29T18:26:50.648Z,1.02
2022-07-29T18:29:18.411Z,1.00
2022-07-29T18:31:46.431Z,0.60
2022-07-29T18:34:14.275Z,0.90
2022-07-29T18:36:43.548Z,1.45
2022-07-29T18:39:18.864Z,1.20
2022-07-29T18:41:50.700Z,0.98
2022-07-29T18:44:19.301Z,1.10
2022-07-29T18:46:50.278Z,1.48
2022-07-29T18:49:18.283Z,1.45
2022-07-29T18:51:47.844Z,1.05
2022-07-29T18:54:17.291Z,1.65
2022-07-29T18:56:45.443Z,1.45
2022-07-29T18:59:16.739Z,1.15
2022-07-29T19:01:44.787Z,1.30
2022-07-29T19:04:12.786Z,1.05
2022-07-29T19:06:41.550Z,1.08
2022-07-29T19:09:10.882Z,1.83
2022-07-29T19:11:39.687Z,1.38
2022-07-29T19:14:08.397Z,1.25
2022-07-29T19:16:36.453Z,1.10
2022-07-29T19:19:04.792Z,1.30
2022-07-29T19:21:32.777Z,1.40
2022-07-29T19:24:06.852Z,1.67
2022-07-29T19:26:42.021Z,1.25
2022-07-29T19:29:09.833Z,1.30
2022-07-29T19:31:37.726Z,0.90
2022-07-29T19:34:05.574Z,1.50
2022-07-29T19:36:33.507Z,1.13
2022-07-29T19:39:01.801Z,1.10
2022-07-29T19:41:29.806Z,1.48
2022-07-29T19:43:59.008Z,1.33
2022-07-29T19:46:28.894Z,1.75
2022-07-29T19:48:57.586Z,1.42
2022-07-29T19:51:25.539Z,1.48
2022-07-29T19:53:53.477Z,1.30
2022-07-29T19:56:21.345Z,1.50
2022-07-29T19:58:52.039Z,1.75
2022-07-29T20:01:22.153Z,1.15
2022-07-29T20:03:50.415Z,1.85
2022-07-29T20:06:18.799Z,1.60
2022-07-29T20:08:47.052Z,1.25
2022-07-29T20:11:15.056Z,1.67
2022-07-29T20:13:42.945Z,1.60
2022-07-29T20:16:11.186Z,1.77
2022-07-29T20:18:40.698Z,1.45
2022-07-29T20:21:08.522Z,1.08
2022-07-29T20:23:37.500Z,1.55
2022-07-29T20:26:09.288Z,1.88
2022-07-29T20:28:39.539Z,2.20
2022-07-29T20:31:07.447Z,2.10
2022-07-29T20:33:35.512Z,2.05
2022-07-29T20:36:05.541Z,2.10
2022-07-29T20:38:33.478Z,1.40
2022-07-29T20:41:01.272Z,1.95
2022-07-29T20:43:29.228Z,1.65
2022-07-29T20:45:57.146Z,2.13
2022-07-29T20:48:25.081Z,1.50
2022-07-29T20:50:54.879Z,1.98
2022-07-29T20:53:24.022Z,1.83
2022-07-29T20:55:52.276Z,1.40
2022-07-29T20:58:21.028Z,2.53
2022-07-29T21:00:51.642Z,2.53
2022-07-29T21:03:19.464Z,2.13
2022-07-29T21:05:47.369Z,2.47
2022-07-29T21:08:15.536Z,1.95
2022-07-29T21:10:44.718Z,2.13
2022-07-29T21:13:13.988Z,2.42
2022-07-29T21:15:44.468Z,2.55
2022-07-29T21:18:27.032Z,2.08
2022-07-29T21:20:55.142Z,1.65
2022-07-29T21:23:23.293Z,2.53
2022-07-29T21:25:52.692Z,1.80
2022-07-29T21:28:30.516Z,2.53
2022-07-29T21:31:00.522Z,2.20
2022-07-29T21:33:29.852Z,2.35
2022-07-29T21:38:45.893Z,2.75
2022-07-29T21:41:15.452Z,2.33
2022-07-29T21:43:43.463Z,2.65
2022-07-29T21:46:11.758Z,2.42
2022-07-29T21:48:44.212Z,2.15
2022-07-29T21:51:12.735Z,3.50
2022-07-29T21:53:40.794Z,2.50
2022-07-29T21:56:09.402Z,2.58
2022-07-29T21:58:44.302Z,2.28
2022-07-29T22:01:12.256Z,2.80
2022-07-29T22:03:40.442Z,3.00
2022-07-29T22:06:08.977Z,2.35
2022-07-29T22:08:40.402Z,3.30
2022-07-29T22:11:08.234Z,2.97
2022-07-29T22:13:37.089Z,2.42
2022-07-29T22:16:07.123Z,2.30
2022-07-29T22:18:34.941Z,2.65
2022-07-29T22:21:03.053Z,2.67
2022-07-29T22:23:31.031Z,3.28
2022-07-29T22:25:58.960Z,3.28
2022-07-29T22:28:26.846Z,3.25
2022-07-29T22:33:24.569Z,2.58
2022-07-29T22:35:52.431Z,2.55
2022-07-29T22:38:20.410Z,2.80
2022-07-29T22:40:50.620Z,3.13
2022-07-29T22:43:18.788Z,2.95
2022-07-29T22:45:46.699Z,3.72
2022-07-29T22:48:14.798Z,2.88
2022-07-29T22:50:44.092Z,3.13
2022-07-29T22:53:12.001Z,2.75
2022-07-29T22:55:40.474Z,2.83
2022-07-29T22:58:08.533Z,3.05
2022-07-29T23:00:36.555Z,2.35
2022-07-29T23:03:04.702Z,2.22
2022-07-29T23:05:32.578Z,2.65
2022-07-29T23:08:01.829Z,2.65
2022-07-29T23:10:29.941Z,2.20
2022-07-29T23:12:57.798Z,2.53
2022-07-29T23:15:25.661Z,2.28
2022-07-29T23:17:53.698Z,2.58
2022-07-29T23:20:21.562Z,2.95
2022-07-29T23:22:49.366Z,3.20
2022-07-29T23:25:18.865Z,2.40
2022-07-29T23:27:46.674Z,2.92
2022-07-29T23:30:14.876Z,3.05
2022-07-29T23:32:42.867Z,3.30
2022-07-29T23:35:11.114Z,2.38
2022-07-29T23:37:39.190Z,2.70
2022-07-29T23:40:13.624Z,2.65
2022-07-29T23:42:44.228Z,2.70
2022-07-29T23:45:13.494Z,2.38
2022-07-29T23:47:42.208Z,2.17
2022-07-29T23:50:12.408Z,2.33
2022-07-29T23:52:41.771Z,2.38
2022-07-29T23:55:36.876Z,2.53
2022-07-29T23:58:00.002Z,2.38
